PHX weather

Phoenix Sky Harbor International Airport
Phoenix, Arizona, United States

Public forecast

Using degrees Fahrenheit for public forecast. Weather courtesy of forecast.io.

METAR (pilot weather report)

Retrieved 2019/04/23 09:51 UTC (14 minutes ago):

KPHX 230951Z 00000KT 10SM FEW150 BKN210 BKN250 21/00 A2980 RMK AO2 SLP074 T02060000

TAF (pilot weather forecast)

Retrieved 2019/04/23 06:22 UTC (4 hours ago):

TAF KPHX 230520Z 2306/2412 11005KT P6SM FEW120 BKN250 TEMPO 2306/2308 VRB05KT FM231500 11008KT P6SM SCT100 BKN200 FM232100 26007KT P6SM SCT090 OVC140 FM240200 11015KT P6SM BKN090 OVC140 FM240500 09008KT P6SM SCT100 BKN150